createdAt,value
2022-07-25T00:01:20.650Z,952.80
2022-07-25T00:03:45.374Z,952.81
2022-07-25T00:06:13.545Z,952.79
2022-07-25T00:08:38.170Z,952.82
2022-07-25T00:11:04.535Z,952.78
2022-07-25T00:13:30.961Z,952.77
2022-07-25T00:15:57.435Z,952.67
2022-07-25T00:18:23.792Z,952.66
2022-07-25T00:20:50.177Z,952.72
2022-07-25T00:23:16.601Z,952.67
2022-07-25T00:25:42.982Z,952.62
2022-07-25T00:28:09.366Z,952.63
2022-07-25T00:30:35.783Z,952.54
2022-07-25T00:33:02.226Z,952.48
2022-07-25T00:35:28.580Z,952.50
2022-07-25T00:37:54.994Z,952.44
2022-07-25T00:40:21.367Z,952.42
2022-07-25T00:42:47.861Z,952.46
2022-07-25T00:45:14.226Z,952.39
2022-07-25T00:47:40.622Z,952.39
2022-07-25T00:50:07.023Z,952.37
2022-07-25T00:52:33.480Z,952.40
2022-07-25T00:54:59.846Z,952.39
2022-07-25T00:57:26.265Z,952.42
2022-07-25T00:59:52.615Z,952.43
2022-07-25T01:02:19.022Z,952.44
2022-07-25T01:04:45.358Z,952.44
2022-07-25T01:07:11.722Z,952.45
2022-07-25T01:09:38.122Z,952.43
2022-07-25T01:12:04.492Z,952.47
2022-07-25T01:14:30.853Z,952.40
2022-07-25T01:16:57.254Z,952.38
2022-07-25T01:19:23.620Z,952.33
2022-07-25T01:21:50.070Z,952.33
2022-07-25T01:24:16.487Z,952.31
2022-07-25T01:26:42.849Z,952.34
2022-07-25T01:29:09.216Z,952.34
2022-07-25T01:31:35.653Z,952.35
2022-07-25T01:34:02.144Z,952.36
2022-07-25T01:36:28.424Z,952.37
2022-07-25T01:38:54.813Z,952.42
2022-07-25T01:41:22.295Z,952.43
2022-07-25T01:43:47.660Z,952.44
2022-07-25T01:46:14.071Z,952.46
2022-07-25T01:48:40.493Z,952.44
2022-07-25T01:51:06.825Z,952.47
2022-07-25T01:53:33.196Z,952.42
2022-07-25T01:55:59.566Z,952.47
2022-07-25T01:58:26.054Z,952.55
2022-07-25T02:00:52.483Z,952.52
2022-07-25T02:03:18.919Z,952.50
2022-07-25T02:05:45.354Z,952.48
2022-07-25T02:08:11.713Z,952.46
2022-07-25T02:10:38.098Z,952.49
2022-07-25T02:13:04.459Z,952.52
2022-07-25T02:15:30.844Z,952.44
2022-07-25T02:17:57.242Z,952.43
2022-07-25T02:20:23.598Z,952.48
2022-07-25T02:22:49.983Z,952.53
2022-07-25T02:25:16.349Z,952.51
2022-07-25T02:27:42.715Z,952.55
2022-07-25T02:30:09.167Z,952.49
2022-07-25T02:32:35.601Z,952.49
2022-07-25T02:35:02.036Z,952.48
2022-07-25T02:37:28.469Z,952.48
2022-07-25T02:39:54.852Z,952.46
2022-07-25T02:42:21.215Z,952.40
2022-07-25T02:44:47.677Z,952.39
2022-07-25T02:47:14.067Z,952.45
2022-07-25T02:49:40.456Z,952.47
2022-07-25T02:52:06.816Z,952.49
2022-07-25T02:54:33.295Z,952.47
2022-07-25T02:56:59.675Z,952.44
2022-07-25T02:59:26.063Z,952.48
2022-07-25T03:01:52.497Z,952.49
2022-07-25T03:04:18.836Z,952.48
2022-07-25T03:06:45.177Z,952.45
2022-07-25T03:09:11.547Z,952.45
2022-07-25T03:11:37.912Z,952.48
2022-07-25T03:14:04.736Z,952.47
2022-07-25T03:16:30.660Z,952.48
2022-07-25T03:18:57.018Z,952.52
2022-07-25T03:21:23.446Z,952.49
2022-07-25T03:24:03.958Z,952.50
2022-07-25T03:26:16.236Z,952.51
2022-07-25T03:28:42.625Z,952.52
2022-07-25T03:31:08.984Z,952.47
2022-07-25T03:33:35.402Z,952.52
2022-07-25T03:36:01.782Z,952.51
2022-07-25T03:38:28.166Z,952.54
2022-07-25T03:40:54.602Z,952.45
2022-07-25T03:43:21.034Z,952.50
2022-07-25T03:45:47.518Z,952.48
2022-07-25T03:48:13.830Z,952.54
2022-07-25T03:50:40.340Z,952.55
2022-07-25T03:53:06.770Z,952.50
2022-07-25T03:55:33.124Z,952.57
2022-07-25T03:57:59.520Z,952.57
2022-07-25T04:00:25.899Z,952.64
2022-07-25T04:02:52.304Z,952.66
2022-07-25T04:05:18.669Z,952.65
2022-07-25T04:07:45.031Z,952.64
2022-07-25T04:10:11.398Z,952.66
2022-07-25T04:12:37.823Z,952.59
2022-07-25T04:15:04.198Z,952.59
2022-07-25T04:17:30.563Z,952.62
2022-07-25T04:19:56.947Z,952.60
2022-07-25T04:22:23.346Z,952.56
2022-07-25T04:24:49.727Z,952.62
2022-07-25T04:27:16.213Z,952.55
2022-07-25T04:29:42.569Z,952.62
2022-07-25T04:32:08.987Z,952.54
2022-07-25T04:34:35.322Z,952.57
2022-07-25T04:37:01.745Z,952.59
2022-07-25T04:39:28.178Z,952.61
2022-07-25T04:41:54.611Z,952.64
2022-07-25T04:44:21.000Z,952.54
2022-07-25T04:46:47.347Z,952.59
2022-07-25T04:49:13.752Z,952.57
2022-07-25T04:51:40.135Z,952.57
2022-07-25T04:54:06.835Z,952.54
2022-07-25T04:56:33.005Z,952.47
2022-07-25T04:59:04.691Z,952.50
2022-07-25T05:01:25.798Z,952.55
2022-07-25T05:03:52.200Z,952.57
2022-07-25T05:06:18.559Z,952.61
2022-07-25T05:08:44.923Z,952.63
2022-07-25T05:11:11.400Z,952.62
2022-07-25T05:13:37.756Z,952.61
2022-07-25T05:16:04.299Z,952.72
2022-07-25T05:18:30.621Z,952.65
2022-07-25T05:20:56.986Z,952.68
2022-07-25T05:23:23.459Z,952.68
2022-07-25T05:25:49.855Z,952.71
2022-07-25T05:28:16.217Z,952.75
2022-07-25T05:30:42.603Z,952.69
2022-07-25T05:33:08.981Z,952.72
2022-07-25T05:35:35.418Z,952.66
2022-07-25T05:38:01.781Z,952.62
2022-07-25T05:40:28.156Z,952.69
2022-07-25T05:42:57.156Z,952.66
2022-07-25T05:45:20.916Z,952.65
2022-07-25T05:47:47.279Z,952.70
2022-07-25T05:50:13.708Z,952.67
2022-07-25T05:52:40.140Z,952.63
2022-07-25T05:55:06.508Z,952.62
2022-07-25T05:57:32.871Z,952.61
2022-07-25T05:59:59.243Z,952.52
2022-07-25T06:02:25.785Z,952.55
2022-07-25T06:04:52.102Z,952.53
2022-07-25T06:07:18.494Z,952.53
2022-07-25T06:09:44.871Z,952.49
2022-07-25T06:12:11.298Z,952.55
2022-07-25T06:14:37.660Z,952.49
2022-07-25T06:17:04.039Z,952.48
2022-07-25T06:19:30.514Z,952.52
2022-07-25T06:21:56.899Z,952.52
2022-07-25T06:24:23.359Z,952.57
2022-07-25T06:26:49.720Z,952.60
2022-07-25T06:29:16.250Z,952.58
2022-07-25T06:31:42.693Z,952.56
2022-07-25T06:34:09.392Z,952.50
2022-07-25T06:36:35.398Z,952.52
2022-07-25T06:39:01.772Z,952.47
2022-07-25T06:41:28.249Z,952.45
2022-07-25T06:43:54.620Z,952.50
2022-07-25T06:46:21.085Z,952.50
2022-07-25T06:48:47.452Z,952.48
2022-07-25T06:51:13.817Z,952.42
2022-07-25T06:53:40.240Z,952.44
2022-07-25T06:56:06.682Z,952.39
2022-07-25T06:58:33.060Z,952.42
2022-07-25T07:00:59.514Z,952.36
2022-07-25T07:03:26.055Z,952.41
2022-07-25T07:05:52.379Z,952.42
2022-07-25T07:08:18.769Z,952.37
2022-07-25T07:10:45.131Z,952.36
2022-07-25T07:13:11.525Z,952.31
2022-07-25T07:15:37.918Z,952.39
2022-07-25T07:18:04.253Z,952.34
2022-07-25T07:20:30.730Z,952.32
2022-07-25T07:22:57.145Z,952.27
2022-07-25T07:25:23.525Z,952.24
2022-07-25T07:27:49.933Z,952.31
2022-07-25T07:30:22.156Z,952.23
2022-07-25T07:32:42.719Z,952.23
2022-07-25T07:35:09.100Z,952.10
2022-07-25T07:37:40.009Z,952.20
2022-07-25T07:40:01.893Z,952.17
2022-07-25T07:42:28.382Z,952.17
2022-07-25T07:44:54.971Z,952.21
2022-07-25T07:47:21.366Z,952.20
2022-07-25T07:49:50.366Z,952.20
2022-07-25T07:52:14.234Z,952.18
2022-07-25T07:54:40.904Z,952.19
2022-07-25T07:57:07.285Z,952.23
2022-07-25T07:59:33.667Z,952.16
2022-07-25T08:02:00.168Z,952.15
2022-07-25T08:04:26.437Z,952.17
2022-07-25T08:06:52.826Z,952.18
2022-07-25T08:09:19.265Z,952.15
2022-07-25T08:11:45.699Z,952.14
2022-07-25T08:14:12.094Z,952.17
2022-07-25T08:16:38.551Z,952.16
2022-07-25T08:19:04.843Z,952.13
2022-07-25T08:21:31.330Z,952.12
2022-07-25T08:23:57.760Z,952.14
2022-07-25T08:26:24.195Z,952.12
2022-07-25T08:29:04.900Z,952.16
2022-07-25T08:31:16.966Z,952.10
2022-07-25T08:33:43.307Z,952.09
2022-07-25T08:36:09.677Z,952.08
2022-07-25T08:38:36.079Z,952.11
2022-07-25T08:41:02.442Z,952.09
2022-07-25T08:43:28.803Z,952.06
2022-07-25T08:45:55.288Z,952.10
2022-07-25T08:48:21.577Z,952.03
2022-07-25T08:50:47.964Z,952.02
2022-07-25T08:53:32.735Z,952.03
2022-07-25T08:55:40.698Z,952.02
2022-07-25T08:58:07.103Z,952.01
2022-07-25T09:00:33.561Z,952.03
2022-07-25T09:02:59.955Z,952.00
2022-07-25T09:05:26.290Z,952.03
2022-07-25T09:07:52.659Z,951.96
2022-07-25T09:10:19.171Z,951.90
2022-07-25T09:12:45.558Z,951.89
2022-07-25T09:15:12.004Z,951.84
2022-07-25T09:17:38.466Z,951.86
2022-07-25T09:20:04.897Z,951.81
2022-07-25T09:22:31.260Z,951.78
2022-07-25T09:24:57.666Z,951.72
2022-07-25T09:27:24.028Z,951.69
2022-07-25T09:29:50.435Z,951.63
2022-07-25T09:32:16.825Z,951.67
2022-07-25T09:34:43.287Z,951.65
2022-07-25T09:37:09.727Z,951.70
2022-07-25T09:39:36.085Z,951.64
2022-07-25T09:42:02.491Z,951.67
2022-07-25T09:44:28.925Z,951.70
2022-07-25T09:46:55.318Z,951.70
2022-07-25T09:49:21.689Z,951.70
2022-07-25T09:51:48.063Z,951.67
2022-07-25T09:54:14.431Z,951.66
2022-07-25T09:56:40.811Z,951.63
2022-07-25T09:59:07.227Z,951.65
2022-07-25T10:01:33.634Z,951.61
2022-07-25T10:03:59.980Z,951.64
2022-07-25T10:06:26.359Z,951.56
2022-07-25T10:08:52.717Z,951.60
2022-07-25T10:11:19.179Z,951.50
2022-07-25T10:13:45.563Z,951.46
2022-07-25T10:16:11.944Z,951.45
2022-07-25T10:18:38.314Z,951.44
2022-07-25T10:21:22.958Z,951.47
2022-07-25T10:23:31.036Z,951.47
2022-07-25T10:25:57.426Z,951.45
2022-07-25T10:28:23.783Z,951.46
2022-07-25T10:30:50.356Z,951.48
2022-07-25T10:33:16.691Z,951.41
2022-07-25T10:35:43.090Z,951.33
2022-07-25T10:38:09.488Z,951.36
2022-07-25T10:40:35.875Z,951.42
2022-07-25T10:43:02.254Z,951.32
2022-07-25T10:45:28.727Z,951.35
2022-07-25T10:47:55.107Z,951.38
2022-07-25T10:50:34.848Z,951.33
2022-07-25T10:52:47.985Z,951.30
2022-07-25T10:55:14.365Z,951.26
2022-07-25T10:57:54.949Z,951.23
2022-07-25T11:00:07.117Z,951.17
2022-07-25T11:02:33.562Z,951.18
2022-07-25T11:04:59.847Z,951.16
2022-07-25T11:07:26.309Z,951.10
2022-07-25T11:09:52.714Z,951.12
2022-07-25T11:12:19.181Z,951.18
2022-07-25T11:14:45.546Z,951.09
2022-07-25T11:17:11.983Z,951.03
2022-07-25T11:19:38.318Z,951.05
2022-07-25T11:22:04.702Z,951.00
2022-07-25T11:24:31.087Z,950.96
2022-07-25T11:26:57.466Z,950.95
2022-07-25T11:29:23.911Z,950.95
2022-07-25T11:31:50.327Z,950.94
2022-07-25T11:34:16.659Z,950.87
2022-07-25T11:36:43.058Z,950.83
2022-07-25T11:39:11.420Z,950.81
2022-07-25T11:41:35.971Z,950.77
2022-07-25T11:44:02.340Z,950.81
2022-07-25T11:46:28.783Z,950.75
2022-07-25T11:48:55.230Z,950.72
2022-07-25T11:51:21.523Z,950.76
2022-07-25T11:53:47.897Z,950.74
2022-07-25T11:56:39.614Z,950.70
2022-07-25T11:58:40.650Z,950.73
2022-07-25T12:01:07.017Z,950.64
2022-07-25T12:03:33.440Z,950.65
2022-07-25T12:05:59.891Z,950.64
2022-07-25T12:08:26.271Z,950.63
2022-07-25T12:10:52.636Z,950.54
2022-07-25T12:13:19.088Z,950.57
2022-07-25T12:15:45.463Z,950.53
2022-07-25T12:18:11.826Z,950.53
2022-07-25T12:20:38.251Z,950.47
2022-07-25T12:23:04.725Z,950.46
2022-07-25T12:25:31.316Z,950.45
2022-07-25T12:27:57.466Z,950.44
2022-07-25T12:30:23.870Z,950.38
2022-07-25T12:32:50.256Z,950.41
2022-07-25T12:35:16.638Z,950.43
2022-07-25T12:37:43.104Z,950.36
2022-07-25T12:40:09.504Z,950.35
2022-07-25T12:42:36.226Z,950.37
2022-07-25T12:45:02.584Z,950.35
2022-07-25T12:47:28.949Z,950.34
2022-07-25T12:49:55.376Z,950.29
2022-07-25T12:52:21.914Z,950.24
2022-07-25T12:54:48.346Z,950.25
2022-07-25T12:57:14.712Z,950.21
2022-07-25T12:59:41.100Z,950.16
2022-07-25T13:02:07.595Z,950.16
2022-07-25T13:04:33.905Z,950.15
2022-07-25T13:07:00.311Z,950.13
2022-07-25T13:09:26.731Z,950.14
2022-07-25T13:11:53.167Z,950.05
2022-07-25T13:14:19.604Z,950.04
2022-07-25T13:16:46.113Z,950.09
2022-07-25T13:19:12.410Z,950.10
2022-07-25T13:21:38.818Z,950.06
2022-07-25T13:24:05.238Z,950.02
2022-07-25T13:26:31.624Z,950.00
2022-07-25T13:28:59.927Z,949.99
2022-07-25T13:31:24.416Z,949.93
2022-07-25T13:33:50.787Z,949.91
2022-07-25T13:36:17.155Z,949.97
2022-07-25T13:38:43.627Z,949.95
2022-07-25T13:41:10.061Z,949.98
2022-07-25T13:43:36.446Z,949.95
2022-07-25T13:46:05.040Z,949.94
2022-07-25T13:48:31.588Z,949.92
2022-07-25T13:50:57.693Z,949.93
2022-07-25T13:53:29.498Z,949.93
2022-07-25T13:55:50.466Z,949.89
2022-07-25T13:58:16.939Z,949.80
2022-07-25T14:00:43.415Z,949.83
2022-07-25T14:03:09.672Z,949.77
2022-07-25T14:05:36.055Z,949.74
2022-07-25T14:08:02.464Z,949.75
2022-07-25T14:10:28.829Z,949.75
2022-07-25T14:12:55.201Z,949.76
2022-07-25T14:15:21.590Z,949.75
2022-07-25T14:17:47.995Z,949.73
2022-07-25T14:20:14.377Z,949.78
2022-07-25T14:22:40.850Z,949.80
2022-07-25T14:25:07.247Z,949.73
2022-07-25T14:27:33.626Z,949.70
2022-07-25T14:30:00.053Z,949.77
2022-07-25T14:32:26.492Z,949.76
2022-07-25T14:34:52.915Z,949.70
2022-07-25T14:37:19.283Z,949.71
2022-07-25T14:39:45.684Z,949.75
2022-07-25T14:42:12.117Z,949.72
2022-07-25T14:44:38.484Z,949.71
2022-07-25T14:47:08.964Z,949.71
2022-07-25T14:49:31.275Z,949.68
2022-07-25T14:51:57.753Z,949.59
2022-07-25T14:54:24.158Z,949.63
2022-07-25T14:56:50.519Z,949.56
2022-07-25T14:59:16.886Z,949.57
2022-07-25T15:01:43.265Z,949.51
2022-07-25T15:04:09.668Z,949.51
2022-07-25T15:06:36.033Z,949.54
2022-07-25T15:09:02.422Z,949.54
2022-07-25T15:11:28.792Z,949.46
2022-07-25T15:13:55.163Z,949.48
2022-07-25T15:16:21.587Z,949.43
2022-07-25T15:19:14.618Z,949.49
2022-07-25T15:21:14.299Z,949.47
2022-07-25T15:23:40.684Z,949.45
2022-07-25T15:26:07.047Z,949.46
2022-07-25T15:28:33.439Z,949.40
2022-07-25T15:30:59.913Z,949.40
2022-07-25T15:33:26.202Z,949.40
2022-07-25T15:35:52.567Z,949.35
2022-07-25T15:38:19.151Z,949.36
2022-07-25T15:40:45.488Z,949.33
2022-07-25T15:43:11.896Z,949.37
2022-07-25T15:45:38.388Z,949.36
2022-07-25T15:48:04.742Z,949.38
2022-07-25T15:50:31.151Z,949.37
2022-07-25T15:52:57.551Z,949.33
2022-07-25T15:55:23.922Z,949.36
2022-07-25T15:57:50.317Z,949.36
2022-07-25T16:00:16.746Z,949.38
2022-07-25T16:02:43.128Z,949.39
2022-07-25T16:05:09.535Z,949.41
2022-07-25T16:07:35.903Z,949.36
2022-07-25T16:10:02.300Z,949.36
2022-07-25T16:12:29.115Z,949.44
2022-07-25T16:14:55.498Z,949.43
2022-07-25T16:17:21.986Z,949.47
2022-07-25T16:19:48.420Z,949.49
2022-07-25T16:22:14.781Z,949.49
2022-07-25T16:24:41.176Z,949.44
2022-07-25T16:27:07.621Z,949.54
2022-07-25T16:29:33.993Z,949.46
2022-07-25T16:32:00.478Z,949.43
2022-07-25T16:34:29.210Z,949.45
2022-07-25T16:36:53.268Z,949.47
2022-07-25T16:39:19.625Z,949.49
2022-07-25T16:41:46.109Z,949.51
2022-07-25T16:44:12.541Z,949.47
2022-07-25T16:46:38.990Z,949.48
2022-07-25T16:49:05.616Z,949.44
2022-07-25T16:51:35.342Z,949.53
2022-07-25T16:53:58.119Z,949.56
2022-07-25T16:56:24.485Z,949.52
2022-07-25T16:58:50.870Z,949.47
2022-07-25T17:01:17.358Z,949.50
2022-07-25T17:03:43.755Z,949.47
2022-07-25T17:06:10.115Z,949.46
2022-07-25T17:08:36.518Z,949.51
2022-07-25T17:11:02.904Z,949.51
2022-07-25T17:13:29.269Z,949.49
2022-07-25T17:15:55.782Z,949.50
2022-07-25T17:18:22.138Z,949.55
2022-07-25T17:20:48.572Z,949.50
2022-07-25T17:23:14.922Z,949.47
2022-07-25T17:25:41.310Z,949.52
2022-07-25T17:28:07.745Z,949.53
2022-07-25T17:30:34.132Z,949.51
2022-07-25T17:33:00.496Z,949.55
2022-07-25T17:35:26.929Z,949.57
2022-07-25T17:37:53.276Z,949.63
2022-07-25T17:40:19.670Z,949.64
2022-07-25T17:42:46.121Z,949.72
2022-07-25T17:45:12.511Z,949.68
2022-07-25T17:47:38.897Z,949.71
2022-07-25T17:50:05.261Z,949.70
2022-07-25T17:52:31.681Z,949.71
2022-07-25T17:54:58.047Z,949.77
2022-07-25T17:57:24.431Z,949.80
2022-07-25T17:59:50.794Z,949.79
2022-07-25T18:02:17.158Z,949.86
2022-07-25T18:04:43.553Z,949.83
2022-07-25T18:07:09.931Z,949.88
2022-07-25T18:09:36.289Z,949.94
2022-07-25T18:12:02.690Z,949.94
2022-07-25T18:14:29.085Z,949.90
2022-07-25T18:16:55.444Z,949.88
2022-07-25T18:19:21.831Z,949.94
2022-07-25T18:21:48.211Z,949.94
2022-07-25T18:24:14.659Z,950.01
2022-07-25T18:26:41.052Z,949.94
2022-07-25T18:29:07.517Z,949.99
2022-07-25T18:31:33.983Z,950.01
2022-07-25T18:34:00.285Z,949.98
2022-07-25T18:36:26.664Z,949.98
2022-07-25T18:38:53.073Z,949.98
2022-07-25T18:41:29.363Z,950.02
2022-07-25T18:43:45.822Z,950.11
2022-07-25T18:46:12.242Z,950.08
2022-07-25T18:48:38.669Z,950.12
2022-07-25T18:51:05.124Z,950.17
2022-07-25T18:53:31.549Z,950.16
2022-07-25T18:55:57.917Z,950.16
2022-07-25T18:58:24.320Z,950.23
2022-07-25T19:00:50.684Z,950.21
2022-07-25T19:03:17.094Z,950.16
2022-07-25T19:05:43.619Z,950.22
2022-07-25T19:08:09.873Z,950.25
2022-07-25T19:10:36.236Z,950.30
2022-07-25T19:13:02.604Z,950.35
2022-07-25T19:15:29.020Z,950.34
2022-07-25T19:17:55.378Z,950.29
2022-07-25T19:20:21.761Z,950.39
2022-07-25T19:22:48.122Z,950.37
2022-07-25T19:25:14.510Z,950.42
2022-07-25T19:27:40.896Z,950.43
2022-07-25T19:30:07.257Z,950.47
2022-07-25T19:32:33.657Z,950.48
2022-07-25T19:35:00.052Z,950.54
2022-07-25T19:37:26.523Z,950.58
2022-07-25T19:39:52.899Z,950.58
2022-07-25T19:42:19.294Z,950.52
2022-07-25T19:44:45.724Z,950.52
2022-07-25T19:47:12.182Z,950.52
2022-07-25T19:49:38.479Z,950.50
2022-07-25T19:52:04.908Z,950.51
2022-07-25T19:54:31.267Z,950.48
2022-07-25T19:56:57.703Z,950.53
2022-07-25T19:59:24.206Z,950.49
2022-07-25T20:01:50.697Z,950.49
2022-07-25T20:04:17.012Z,950.47
2022-07-25T20:06:43.406Z,950.53
2022-07-25T20:09:10.200Z,950.47
2022-07-25T20:11:36.206Z,950.52
2022-07-25T20:14:02.553Z,950.55
2022-07-25T20:16:28.966Z,950.47
2022-07-25T20:18:55.294Z,950.57
2022-07-25T20:21:21.703Z,950.56
2022-07-25T20:23:48.082Z,950.55
2022-07-25T20:26:14.446Z,950.51
2022-07-25T20:28:40.866Z,950.56
2022-07-25T20:31:07.400Z,950.53
2022-07-25T20:33:33.716Z,950.59
2022-07-25T20:36:00.086Z,950.57
2022-07-25T20:38:26.446Z,950.60
2022-07-25T20:40:52.810Z,950.54
2022-07-25T20:43:19.197Z,950.54
2022-07-25T20:45:45.599Z,950.53
2022-07-25T20:48:12.120Z,950.57
2022-07-25T20:50:38.488Z,950.55
2022-07-25T20:53:04.859Z,950.53
2022-07-25T20:55:31.367Z,950.54
2022-07-25T20:57:57.761Z,950.55
2022-07-25T21:00:24.124Z,950.52
2022-07-25T21:02:50.634Z,950.56
2022-07-25T21:05:16.995Z,950.59
2022-07-25T21:07:43.354Z,950.56
2022-07-25T21:10:09.751Z,950.55
2022-07-25T21:12:36.180Z,950.59
2022-07-25T21:15:02.610Z,950.55
2022-07-25T21:17:28.973Z,950.63
2022-07-25T21:19:55.341Z,950.62
2022-07-25T21:22:21.731Z,950.59
2022-07-25T21:24:48.143Z,950.55
2022-07-25T21:27:14.495Z,950.50
2022-07-25T21:29:40.921Z,950.62
2022-07-25T21:32:07.326Z,950.55
2022-07-25T21:34:33.640Z,950.58
2022-07-25T21:37:00.033Z,950.58
2022-07-25T21:39:26.380Z,950.60
2022-07-25T21:41:55.403Z,950.60
2022-07-25T21:44:19.204Z,950.62
2022-07-25T21:46:45.623Z,950.62
2022-07-25T21:49:12.809Z,950.65
2022-07-25T21:51:40.228Z,950.67
2022-07-25T21:54:04.734Z,950.62
2022-07-25T21:56:31.162Z,950.59
2022-07-25T21:58:57.536Z,950.53
2022-07-25T22:01:23.971Z,950.55
2022-07-25T22:03:50.396Z,950.53
2022-07-25T22:06:16.789Z,950.55
2022-07-25T22:08:43.140Z,950.51
2022-07-25T22:11:20.678Z,950.43
2022-07-25T22:13:38.019Z,950.43
2022-07-25T22:16:02.455Z,950.40
2022-07-25T22:18:28.754Z,950.41
2022-07-25T22:20:55.132Z,950.37
2022-07-25T22:23:21.514Z,950.38
2022-07-25T22:25:47.897Z,950.39
2022-07-25T22:28:14.523Z,950.40
2022-07-25T22:30:40.640Z,950.42
2022-07-25T22:33:07.011Z,950.44
2022-07-25T22:35:33.380Z,950.47
2022-07-25T22:37:59.803Z,950.43
2022-07-25T22:40:26.232Z,950.36
2022-07-25T22:42:52.598Z,950.37
2022-07-25T22:45:18.982Z,950.36
2022-07-25T22:47:45.357Z,950.32
2022-07-25T22:50:11.718Z,950.34
2022-07-25T22:52:38.129Z,950.39
2022-07-25T22:55:04.489Z,950.29
2022-07-25T22:57:37.568Z,950.29
2022-07-25T22:59:57.394Z,950.30
2022-07-25T23:02:23.831Z,950.27
2022-07-25T23:04:50.202Z,950.32
2022-07-25T23:07:16.613Z,950.32
2022-07-25T23:09:42.996Z,950.29
2022-07-25T23:12:09.363Z,950.25
2022-07-25T23:14:35.791Z,950.25
2022-07-25T23:17:02.281Z,950.25
2022-07-25T23:19:28.657Z,950.19
2022-07-25T23:21:55.015Z,950.15
2022-07-25T23:24:21.424Z,950.24
2022-07-25T23:26:47.794Z,950.17
2022-07-25T23:29:14.168Z,950.16
2022-07-25T23:31:40.680Z,950.16
2022-07-25T23:34:07.047Z,950.15
2022-07-25T23:36:33.392Z,950.11
2022-07-25T23:38:59.912Z,950.15
2022-07-25T23:41:26.291Z,950.19
2022-07-25T23:43:59.602Z,950.22
2022-07-25T23:46:22.468Z,950.21
2022-07-25T23:48:45.556Z,950.12
2022-07-25T23:51:11.885Z,950.06
2022-07-25T23:53:38.271Z,950.20
2022-07-25T23:56:04.634Z,950.11
2022-07-25T23:58:30.985Z,950.10
